createdAt,value
2023-12-19T00:05:41.997Z,30.40
2023-12-19T00:15:38.997Z,26.90
2023-12-19T00:25:39.441Z,25.40
2023-12-19T00:35:42.198Z,24.70
2023-12-19T00:45:48.149Z,24.60
2023-12-19T00:55:39.091Z,23.60
2023-12-19T01:05:39.010Z,23.40
2023-12-19T01:15:39.001Z,25.40
2023-12-19T01:25:38.958Z,24.50
2023-12-19T01:35:38.966Z,25.10
2023-12-19T01:45:38.969Z,24.00
2023-12-19T01:55:38.983Z,23.80
2023-12-19T02:05:39.047Z,22.50
2023-12-19T02:15:39.015Z,22.60
2023-12-19T02:25:38.999Z,23.50
2023-12-19T02:35:38.983Z,23.40
2023-12-19T02:45:39.042Z,21.90
2023-12-19T02:55:39.012Z,23.60
2023-12-19T03:05:38.993Z,21.60
2023-12-19T03:15:39.001Z,24.00
2023-12-19T03:25:39.015Z,20.40
2023-12-19T03:35:39.000Z,21.00
2023-12-19T03:45:39.050Z,21.50
2023-12-19T03:55:39.026Z,21.80
2023-12-19T04:05:41.890Z,20.40
2023-12-19T04:15:39.125Z,21.60
2023-12-19T04:25:39.081Z,19.30
2023-12-19T04:35:39.079Z,17.90
2023-12-19T04:45:39.114Z,18.50
2023-12-19T04:55:43.301Z,19.90
2023-12-19T05:05:39.092Z,16.40
2023-12-19T05:15:39.085Z,15.90
2023-12-19T05:25:39.095Z,14.40
2023-12-19T05:35:39.055Z,14.40
2023-12-19T05:45:39.127Z,17.10
2023-12-19T05:55:39.069Z,14.60
2023-12-19T06:05:39.171Z,15.30
2023-12-19T06:15:39.160Z,14.80
2023-12-19T06:25:39.096Z,15.00
2023-12-19T06:35:39.151Z,16.80
2023-12-19T06:45:39.183Z,15.70
2023-12-19T06:55:39.133Z,13.30
2023-12-19T07:05:39.092Z,14.30
2023-12-19T07:15:39.125Z,13.00
2023-12-19T07:25:39.099Z,12.10
2023-12-19T07:35:39.096Z,7.50
2023-12-19T07:45:39.167Z,3.60
2023-12-19T07:55:39.117Z,4.10
2023-12-19T08:05:39.210Z,2.60
2023-12-19T08:15:39.153Z,3.10
2023-12-19T08:25:41.284Z,3.90
2023-12-19T08:35:39.239Z,4.70
2023-12-19T08:45:39.157Z,4.10
2023-12-19T08:55:39.128Z,3.10
2023-12-19T09:05:39.403Z,5.40
2023-12-19T09:15:39.280Z,7.60
2023-12-19T09:25:39.146Z,5.10
2023-12-19T09:35:39.167Z,4.80
2023-12-19T09:45:39.278Z,4.90
2023-12-19T09:55:39.139Z,3.00
2023-12-19T10:05:39.219Z,2.90
2023-12-19T10:15:39.151Z,2.70
2023-12-19T10:25:45.525Z,3.90
2023-12-19T10:35:39.176Z,3.20
2023-12-19T10:45:39.208Z,4.20
2023-12-19T10:55:39.172Z,3.10
2023-12-19T11:05:39.203Z,3.60
2023-12-19T11:15:39.209Z,4.10
2023-12-19T11:25:39.430Z,3.80
2023-12-19T11:35:39.204Z,3.70
2023-12-19T11:45:42.527Z,3.50
2023-12-19T11:55:39.218Z,4.40
2023-12-19T12:05:39.210Z,5.10
2023-12-19T12:15:39.246Z,5.20
2023-12-19T12:25:39.429Z,4.50
2023-12-19T12:35:39.215Z,4.30
2023-12-19T12:45:39.331Z,4.00
2023-12-19T12:55:39.196Z,4.60
2023-12-19T13:15:39.245Z,4.90
2023-12-19T13:25:39.236Z,4.70
2023-12-19T13:35:39.228Z,3.90
2023-12-19T13:45:40.485Z,3.40
2023-12-19T13:55:39.292Z,4.20
2023-12-19T14:05:39.400Z,3.80
2023-12-19T14:15:39.287Z,3.90
2023-12-19T14:25:39.289Z,4.20
2023-12-19T14:35:41.228Z,4.00
2023-12-19T14:45:39.575Z,3.80
2023-12-19T14:55:39.267Z,3.50
2023-12-19T15:05:39.964Z,3.60
2023-12-19T15:15:39.348Z,3.90
2023-12-19T15:25:39.507Z,4.50
2023-12-19T15:35:45.063Z,4.80
2023-12-19T15:45:42.263Z,4.70
2023-12-19T16:05:39.484Z,5.50
2023-12-19T16:15:39.343Z,5.50
2023-12-19T16:25:39.317Z,6.80
2023-12-19T16:35:39.332Z,5.80
2023-12-19T16:45:39.345Z,5.10
2023-12-19T16:55:39.316Z,5.80
2023-12-19T17:05:42.330Z,6.80
2023-12-19T17:15:39.369Z,4.90
2023-12-19T17:25:39.343Z,4.60
2023-12-19T17:35:40.001Z,4.60
2023-12-19T17:45:39.506Z,15.70
2023-12-19T17:55:39.365Z,20.40
2023-12-19T18:05:39.392Z,20.10
2023-12-19T18:15:39.428Z,24.30
2023-12-19T18:25:39.374Z,24.90
2023-12-19T18:35:39.396Z,27.90
2023-12-19T18:45:39.400Z,19.80
2023-12-19T18:55:39.333Z,19.00
2023-12-19T19:05:39.418Z,18.70
2023-12-19T19:15:39.426Z,20.70
2023-12-19T19:25:39.423Z,18.40
2023-12-19T19:45:39.500Z,18.00
2023-12-19T19:55:39.404Z,18.60
2023-12-19T20:05:39.399Z,16.80
2023-12-19T20:15:39.456Z,19.80
2023-12-19T20:25:39.385Z,17.80
2023-12-19T20:35:39.394Z,16.60
2023-12-19T20:45:39.421Z,16.30
2023-12-19T20:55:40.243Z,16.60
2023-12-19T21:05:39.428Z,16.40
2023-12-19T21:15:39.428Z,18.60
2023-12-19T21:25:39.410Z,18.60
2023-12-19T21:35:39.416Z,18.60
2023-12-19T21:45:39.428Z,18.20
2023-12-19T21:55:39.437Z,17.10
2023-12-19T22:05:39.502Z,18.50
2023-12-19T22:15:39.513Z,16.80
2023-12-19T22:25:39.419Z,17.90
2023-12-19T22:35:39.415Z,18.20
2023-12-19T22:55:39.602Z,18.20
2023-12-19T23:05:39.481Z,17.30
2023-12-19T23:35:39.500Z,18.40
2023-12-19T23:45:39.573Z,19.20
2023-12-19T23:55:39.500Z,16.90
